sensor_id;sensor_type;location;lat;lon;timestamp;P1;durP1;ratioP1;P2;durP2;ratioP2
5752;SDS011;2901;42.140;24.760;2023-04-24T00:00:11;9.57;;;5.47;;
5752;SDS011;2901;42.140;24.760;2023-04-24T00:02:39;8.25;;;5.47;;
5752;SDS011;2901;42.140;24.760;2023-04-24T00:05:06;6.95;;;5.55;;
5752;SDS011;2901;42.140;24.760;2023-04-24T00:07:32;6.65;;;6.00;;
5752;SDS011;2901;42.140;24.760;2023-04-24T00:09:58;6.30;;;5.80;;
5752;SDS011;2901;42.140;24.760;2023-04-24T00:12:24;7.80;;;6.18;;
5752;SDS011;2901;42.140;24.760;2023-04-24T00:14:50;10.18;;;6.40;;
5752;SDS011;2901;42.140;24.760;2023-04-24T00:17:16;8.65;;;5.85;;
5752;SDS011;2901;42.140;24.760;2023-04-24T00:19:44;6.38;;;5.60;;
5752;SDS011;2901;42.140;24.760;2023-04-24T00:22:10;8.23;;;6.18;;
5752;SDS011;2901;42.140;24.760;2023-04-24T00:24:35;8.18;;;6.85;;
5752;SDS011;2901;42.140;24.760;2023-04-24T00:27:01;7.63;;;6.97;;
5752;SDS011;2901;42.140;24.760;2023-04-24T00:29:27;9.65;;;5.60;;
5752;SDS011;2901;42.140;24.760;2023-04-24T00:31:53;11.38;;;5.63;;
5752;SDS011;2901;42.140;24.760;2023-04-24T00:34:19;13.48;;;6.13;;
5752;SDS011;2901;42.140;24.760;2023-04-24T00:36:44;10.00;;;5.72;;
5752;SDS011;2901;42.140;24.760;2023-04-24T00:39:10;6.55;;;5.95;;
5752;SDS011;2901;42.140;24.760;2023-04-24T00:41:35;5.80;;;5.30;;
5752;SDS011;2901;42.140;24.760;2023-04-24T00:44:01;8.25;;;5.68;;
5752;SDS011;2901;42.140;24.760;2023-04-24T00:46:26;11.95;;;6.40;;
5752;SDS011;2901;42.140;24.760;2023-04-24T00:48:52;10.30;;;6.20;;
5752;SDS011;2901;42.140;24.760;2023-04-24T00:51:18;13.63;;;6.47;;
5752;SDS011;2901;42.140;24.760;2023-04-24T00:53:43;11.75;;;6.85;;
5752;SDS011;2901;42.140;24.760;2023-04-24T00:56:09;6.60;;;5.25;;
5752;SDS011;2901;42.140;24.760;2023-04-24T00:58:35;6.60;;;5.85;;
5752;SDS011;2901;42.140;24.760;2023-04-24T01:01:00;8.00;;;6.97;;
5752;SDS011;2901;42.140;24.760;2023-04-24T01:03:28;6.85;;;6.22;;
5752;SDS011;2901;42.140;24.760;2023-04-24T01:05:56;8.38;;;6.18;;
5752;SDS011;2901;42.140;24.760;2023-04-24T01:08:23;18.55;;;5.93;;
5752;SDS011;2901;42.140;24.760;2023-04-24T01:10:50;6.90;;;6.28;;
5752;SDS011;2901;42.140;24.760;2023-04-24T01:13:17;12.00;;;5.78;;
5752;SDS011;2901;42.140;24.760;2023-04-24T01:15:44;6.72;;;6.18;;
5752;SDS011;2901;42.140;24.760;2023-04-24T01:18:09;8.43;;;6.55;;
5752;SDS011;2901;42.140;24.760;2023-04-24T01:20:35;7.72;;;6.63;;
5752;SDS011;2901;42.140;24.760;2023-04-24T01:23:04;6.60;;;6.00;;
5752;SDS011;2901;42.140;24.760;2023-04-24T01:25:30;9.73;;;6.63;;
5752;SDS011;2901;42.140;24.760;2023-04-24T01:27:56;8.82;;;5.93;;
5752;SDS011;2901;42.140;24.760;2023-04-24T01:30:22;10.75;;;6.50;;
5752;SDS011;2901;42.140;24.760;2023-04-24T01:32:48;6.93;;;6.38;;
5752;SDS011;2901;42.140;24.760;2023-04-24T01:35:13;6.82;;;6.25;;
5752;SDS011;2901;42.140;24.760;2023-04-24T01:37:39;6.88;;;6.25;;
5752;SDS011;2901;42.140;24.760;2023-04-24T01:40:05;9.52;;;5.97;;
5752;SDS011;2901;42.140;24.760;2023-04-24T01:42:32;7.63;;;6.93;;
5752;SDS011;2901;42.140;24.760;2023-04-24T01:44:57;6.40;;;5.90;;
5752;SDS011;2901;42.140;24.760;2023-04-24T01:47:24;9.20;;;5.70;;
5752;SDS011;2901;42.140;24.760;2023-04-24T01:49:49;8.73;;;6.90;;
5752;SDS011;2901;42.140;24.760;2023-04-24T01:52:15;11.02;;;7.43;;
5752;SDS011;2901;42.140;24.760;2023-04-24T01:54:42;9.07;;;7.45;;
5752;SDS011;2901;42.140;24.760;2023-04-24T01:57:08;9.93;;;6.97;;
5752;SDS011;2901;42.140;24.760;2023-04-24T01:59:33;8.98;;;6.90;;
5752;SDS011;2901;42.140;24.760;2023-04-24T02:02:01;8.10;;;7.30;;
5752;SDS011;2901;42.140;24.760;2023-04-24T02:04:27;10.88;;;7.93;;
5752;SDS011;2901;42.140;24.760;2023-04-24T02:06:52;7.95;;;7.15;;
5752;SDS011;2901;42.140;24.760;2023-04-24T02:09:18;8.55;;;7.03;;
5752;SDS011;2901;42.140;24.760;2023-04-24T02:11:43;7.72;;;6.97;;
5752;SDS011;2901;42.140;24.760;2023-04-24T02:14:09;15.65;;;8.27;;
5752;SDS011;2901;42.140;24.760;2023-04-24T02:16:34;7.90;;;7.10;;
5752;SDS011;2901;42.140;24.760;2023-04-24T02:19:01;9.15;;;7.72;;
5752;SDS011;2901;42.140;24.760;2023-04-24T02:21:27;9.07;;;7.50;;
5752;SDS011;2901;42.140;24.760;2023-04-24T02:23:53;7.18;;;6.65;;
5752;SDS011;2901;42.140;24.760;2023-04-24T02:26:18;8.07;;;7.63;;
5752;SDS011;2901;42.140;24.760;2023-04-24T02:28:44;8.73;;;6.78;;
5752;SDS011;2901;42.140;24.760;2023-04-24T02:31:09;8.20;;;7.45;;
5752;SDS011;2901;42.140;24.760;2023-04-24T02:33:34;8.63;;;7.30;;
5752;SDS011;2901;42.140;24.760;2023-04-24T02:36:00;8.60;;;7.80;;
5752;SDS011;2901;42.140;24.760;2023-04-24T02:38:26;12.13;;;8.13;;
5752;SDS011;2901;42.140;24.760;2023-04-24T02:40:52;10.25;;;7.97;;
5752;SDS011;2901;42.140;24.760;2023-04-24T02:43:17;11.95;;;7.65;;
5752;SDS011;2901;42.140;24.760;2023-04-24T02:45:43;13.57;;;8.32;;
5752;SDS011;2901;42.140;24.760;2023-04-24T02:48:08;7.80;;;7.20;;
5752;SDS011;2901;42.140;24.760;2023-04-24T02:50:33;7.68;;;7.28;;
5752;SDS011;2901;42.140;24.760;2023-04-24T02:52:59;8.30;;;7.70;;
5752;SDS011;2901;42.140;24.760;2023-04-24T02:55:24;8.35;;;7.88;;
5752;SDS011;2901;42.140;24.760;2023-04-24T02:57:50;15.57;;;8.07;;
5752;SDS011;2901;42.140;24.760;2023-04-24T03:00:15;8.20;;;7.45;;
5752;SDS011;2901;42.140;24.760;2023-04-24T03:02:41;8.35;;;7.65;;
5752;SDS011;2901;42.140;24.760;2023-04-24T03:05:07;11.55;;;8.30;;
5752;SDS011;2901;42.140;24.760;2023-04-24T03:07:32;8.20;;;7.65;;
5752;SDS011;2901;42.140;24.760;2023-04-24T03:09:58;11.50;;;8.00;;
5752;SDS011;2901;42.140;24.760;2023-04-24T03:12:24;8.65;;;7.82;;
5752;SDS011;2901;42.140;24.760;2023-04-24T03:14:49;12.18;;;8.27;;
5752;SDS011;2901;42.140;24.760;2023-04-24T03:17:15;8.82;;;8.13;;
5752;SDS011;2901;42.140;24.760;2023-04-24T03:19:40;12.07;;;7.47;;
5752;SDS011;2901;42.140;24.760;2023-04-24T03:22:06;12.35;;;8.10;;
5752;SDS011;2901;42.140;24.760;2023-04-24T03:24:31;14.98;;;8.02;;
5752;SDS011;2901;42.140;24.760;2023-04-24T03:26:57;10.05;;;8.55;;
5752;SDS011;2901;42.140;24.760;2023-04-24T03:29:22;12.30;;;9.02;;
5752;SDS011;2901;42.140;24.760;2023-04-24T03:31:48;11.85;;;8.40;;
5752;SDS011;2901;42.140;24.760;2023-04-24T03:34:13;8.45;;;7.72;;
5752;SDS011;2901;42.140;24.760;2023-04-24T03:36:39;12.88;;;8.57;;
5752;SDS011;2901;42.140;24.760;2023-04-24T03:39:04;9.73;;;8.60;;
5752;SDS011;2901;42.140;24.760;2023-04-24T03:41:30;9.10;;;8.27;;
5752;SDS011;2901;42.140;24.760;2023-04-24T03:43:55;9.65;;;8.65;;
5752;SDS011;2901;42.140;24.760;2023-04-24T03:46:21;11.45;;;8.95;;
5752;SDS011;2901;42.140;24.760;2023-04-24T03:48:46;9.60;;;8.70;;
5752;SDS011;2901;42.140;24.760;2023-04-24T03:51:12;10.07;;;8.43;;
5752;SDS011;2901;42.140;24.760;2023-04-24T03:53:37;12.10;;;8.48;;
5752;SDS011;2901;42.140;24.760;2023-04-24T03:56:03;14.30;;;9.52;;
5752;SDS011;2901;42.140;24.760;2023-04-24T03:58:28;12.68;;;8.30;;
5752;SDS011;2901;42.140;24.760;2023-04-24T04:00:53;12.85;;;8.35;;
5752;SDS011;2901;42.140;24.760;2023-04-24T04:03:19;14.85;;;9.77;;
5752;SDS011;2901;42.140;24.760;2023-04-24T04:05:44;10.35;;;9.15;;
5752;SDS011;2901;42.140;24.760;2023-04-24T04:08:10;8.85;;;8.15;;
5752;SDS011;2901;42.140;24.760;2023-04-24T04:10:35;19.05;;;10.05;;
5752;SDS011;2901;42.140;24.760;2023-04-24T04:13:00;9.25;;;8.55;;
5752;SDS011;2901;42.140;24.760;2023-04-24T04:15:26;9.65;;;8.30;;
5752;SDS011;2901;42.140;24.760;2023-04-24T04:17:51;14.55;;;8.15;;
5752;SDS011;2901;42.140;24.760;2023-04-24T04:20:17;9.43;;;7.65;;
5752;SDS011;2901;42.140;24.760;2023-04-24T04:22:42;15.55;;;9.00;;
5752;SDS011;2901;42.140;24.760;2023-04-24T04:25:08;15.50;;;9.38;;
5752;SDS011;2901;42.140;24.760;2023-04-24T04:27:33;13.90;;;9.02;;
5752;SDS011;2901;42.140;24.760;2023-04-24T04:29:59;12.60;;;9.40;;
5752;SDS011;2901;42.140;24.760;2023-04-24T04:32:29;11.25;;;9.40;;
5752;SDS011;2901;42.140;24.760;2023-04-24T04:34:58;10.27;;;8.85;;
5752;SDS011;2901;42.140;24.760;2023-04-24T04:37:28;10.77;;;9.02;;
5752;SDS011;2901;42.140;24.760;2023-04-24T04:39:56;9.95;;;9.13;;
5752;SDS011;2901;42.140;24.760;2023-04-24T04:42:23;18.73;;;9.57;;
5752;SDS011;2901;42.140;24.760;2023-04-24T04:44:49;13.85;;;9.60;;
5752;SDS011;2901;42.140;24.760;2023-04-24T04:47:15;9.85;;;8.75;;
5752;SDS011;2901;42.140;24.760;2023-04-24T04:49:42;12.90;;;8.70;;
5752;SDS011;2901;42.140;24.760;2023-04-24T04:52:08;14.30;;;10.07;;
5752;SDS011;2901;42.140;24.760;2023-04-24T04:54:33;17.05;;;10.43;;
5752;SDS011;2901;42.140;24.760;2023-04-24T04:56:59;18.23;;;11.48;;
5752;SDS011;2901;42.140;24.760;2023-04-24T04:59:25;12.32;;;9.55;;
5752;SDS011;2901;42.140;24.760;2023-04-24T05:01:51;12.25;;;9.13;;
5752;SDS011;2901;42.140;24.760;2023-04-24T05:04:17;18.60;;;11.00;;
5752;SDS011;2901;42.140;24.760;2023-04-24T05:06:42;15.80;;;8.48;;
5752;SDS011;2901;42.140;24.760;2023-04-24T05:09:08;9.88;;;8.90;;
5752;SDS011;2901;42.140;24.760;2023-04-24T05:11:33;17.95;;;9.43;;
5752;SDS011;2901;42.140;24.760;2023-04-24T05:13:58;10.85;;;8.50;;
5752;SDS011;2901;42.140;24.760;2023-04-24T05:16:24;12.98;;;9.23;;
5752;SDS011;2901;42.140;24.760;2023-04-24T05:18:49;12.57;;;9.35;;
5752;SDS011;2901;42.140;24.760;2023-04-24T05:21:15;9.82;;;8.85;;
5752;SDS011;2901;42.140;24.760;2023-04-24T05:23:40;12.35;;;8.15;;
5752;SDS011;2901;42.140;24.760;2023-04-24T05:26:06;23.25;;;9.73;;
5752;SDS011;2901;42.140;24.760;2023-04-24T05:28:31;12.55;;;9.88;;
5752;SDS011;2901;42.140;24.760;2023-04-24T05:30:57;20.63;;;9.55;;
5752;SDS011;2901;42.140;24.760;2023-04-24T05:33:24;19.33;;;8.82;;
5752;SDS011;2901;42.140;24.760;2023-04-24T05:35:49;23.35;;;9.88;;
5752;SDS011;2901;42.140;24.760;2023-04-24T05:38:15;9.57;;;8.38;;
5752;SDS011;2901;42.140;24.760;2023-04-24T05:40:42;10.98;;;8.63;;
5752;SDS011;2901;42.140;24.760;2023-04-24T05:43:08;9.98;;;8.90;;
5752;SDS011;2901;42.140;24.760;2023-04-24T05:45:33;11.30;;;9.00;;
5752;SDS011;2901;42.140;24.760;2023-04-24T05:48:00;18.88;;;9.70;;
5752;SDS011;2901;42.140;24.760;2023-04-24T05:50:26;18.38;;;9.85;;
5752;SDS011;2901;42.140;24.760;2023-04-24T05:52:53;18.95;;;9.43;;
5752;SDS011;2901;42.140;24.760;2023-04-24T05:55:19;16.35;;;9.93;;
5752;SDS011;2901;42.140;24.760;2023-04-24T05:57:45;8.60;;;6.90;;
5752;SDS011;2901;42.140;24.760;2023-04-24T06:00:11;15.82;;;6.75;;
5752;SDS011;2901;42.140;24.760;2023-04-24T06:02:38;6.82;;;6.07;;
5752;SDS011;2901;42.140;24.760;2023-04-24T06:05:03;14.00;;;7.05;;
5752;SDS011;2901;42.140;24.760;2023-04-24T06:07:30;11.25;;;6.72;;
5752;SDS011;2901;42.140;24.760;2023-04-24T06:09:55;9.02;;;6.63;;
5752;SDS011;2901;42.140;24.760;2023-04-24T06:12:21;13.43;;;7.53;;
5752;SDS011;2901;42.140;24.760;2023-04-24T06:14:47;10.40;;;7.95;;
5752;SDS011;2901;42.140;24.760;2023-04-24T06:17:12;38.35;;;11.82;;
5752;SDS011;2901;42.140;24.760;2023-04-24T06:19:38;14.35;;;7.65;;
5752;SDS011;2901;42.140;24.760;2023-04-24T06:22:03;9.63;;;7.32;;
5752;SDS011;2901;42.140;24.760;2023-04-24T06:24:29;12.02;;;7.18;;
5752;SDS011;2901;42.140;24.760;2023-04-24T06:26:54;11.43;;;7.53;;
5752;SDS011;2901;42.140;24.760;2023-04-24T06:29:21;13.77;;;7.30;;
5752;SDS011;2901;42.140;24.760;2023-04-24T06:31:47;8.38;;;6.70;;
5752;SDS011;2901;42.140;24.760;2023-04-24T06:34:12;6.20;;;5.65;;
5752;SDS011;2901;42.140;24.760;2023-04-24T06:36:37;17.58;;;6.70;;
5752;SDS011;2901;42.140;24.760;2023-04-24T06:39:03;6.30;;;5.32;;
5752;SDS011;2901;42.140;24.760;2023-04-24T06:41:29;11.98;;;6.97;;
5752;SDS011;2901;42.140;24.760;2023-04-24T06:43:54;15.48;;;7.47;;
5752;SDS011;2901;42.140;24.760;2023-04-24T06:46:21;7.07;;;6.45;;
5752;SDS011;2901;42.140;24.760;2023-04-24T06:48:51;7.63;;;6.60;;
5752;SDS011;2901;42.140;24.760;2023-04-24T06:51:17;8.27;;;6.43;;
5752;SDS011;2901;42.140;24.760;2023-04-24T06:53:43;10.40;;;6.55;;
5752;SDS011;2901;42.140;24.760;2023-04-24T06:56:09;8.90;;;7.22;;
5752;SDS011;2901;42.140;24.760;2023-04-24T06:58:34;8.88;;;6.40;;
5752;SDS011;2901;42.140;24.760;2023-04-24T07:01:00;15.18;;;6.70;;
5752;SDS011;2901;42.140;24.760;2023-04-24T07:03:25;14.88;;;6.82;;
5752;SDS011;2901;42.140;24.760;2023-04-24T07:05:50;8.18;;;7.35;;
5752;SDS011;2901;42.140;24.760;2023-04-24T07:08:16;13.77;;;7.35;;
5752;SDS011;2901;42.140;24.760;2023-04-24T07:10:42;10.25;;;6.47;;
5752;SDS011;2901;42.140;24.760;2023-04-24T07:13:09;10.82;;;6.55;;
5752;SDS011;2901;42.140;24.760;2023-04-24T07:15:34;12.00;;;6.25;;
5752;SDS011;2901;42.140;24.760;2023-04-24T07:17:59;7.78;;;6.97;;
5752;SDS011;2901;42.140;24.760;2023-04-24T07:20:25;10.85;;;7.00;;
5752;SDS011;2901;42.140;24.760;2023-04-24T07:22:51;6.60;;;5.82;;
5752;SDS011;2901;42.140;24.760;2023-04-24T07:25:16;9.10;;;6.63;;
5752;SDS011;2901;42.140;24.760;2023-04-24T07:27:42;10.82;;;6.78;;
5752;SDS011;2901;42.140;24.760;2023-04-24T07:30:07;10.80;;;6.25;;
5752;SDS011;2901;42.140;24.760;2023-04-24T07:32:33;10.10;;;6.00;;
5752;SDS011;2901;42.140;24.760;2023-04-24T07:34:59;8.50;;;6.45;;
5752;SDS011;2901;42.140;24.760;2023-04-24T07:37:25;9.43;;;6.60;;
5752;SDS011;2901;42.140;24.760;2023-04-24T07:39:51;11.55;;;7.50;;
5752;SDS011;2901;42.140;24.760;2023-04-24T07:42:16;7.28;;;6.30;;
5752;SDS011;2901;42.140;24.760;2023-04-24T07:44:42;10.32;;;7.18;;
5752;SDS011;2901;42.140;24.760;2023-04-24T07:47:07;14.23;;;7.57;;
5752;SDS011;2901;42.140;24.760;2023-04-24T07:49:33;6.53;;;6.03;;
5752;SDS011;2901;42.140;24.760;2023-04-24T07:51:59;18.08;;;7.32;;
5752;SDS011;2901;42.140;24.760;2023-04-24T07:54:27;7.03;;;6.50;;
5752;SDS011;2901;42.140;24.760;2023-04-24T07:56:53;14.77;;;7.20;;
5752;SDS011;2901;42.140;24.760;2023-04-24T07:59:19;7.47;;;6.53;;
5752;SDS011;2901;42.140;24.760;2023-04-24T08:01:44;9.23;;;6.47;;
5752;SDS011;2901;42.140;24.760;2023-04-24T08:04:09;15.90;;;7.93;;
5752;SDS011;2901;42.140;24.760;2023-04-24T08:06:35;10.85;;;7.10;;
5752;SDS011;2901;42.140;24.760;2023-04-24T08:09:00;7.03;;;6.30;;
5752;SDS011;2901;42.140;24.760;2023-04-24T08:11:26;7.28;;;5.80;;
5752;SDS011;2901;42.140;24.760;2023-04-24T08:13:51;8.07;;;7.32;;
5752;SDS011;2901;42.140;24.760;2023-04-24T08:16:17;8.52;;;7.68;;
5752;SDS011;2901;42.140;24.760;2023-04-24T08:18:42;10.98;;;6.45;;
5752;SDS011;2901;42.140;24.760;2023-04-24T08:21:08;9.00;;;6.65;;
5752;SDS011;2901;42.140;24.760;2023-04-24T08:23:33;6.68;;;5.97;;
5752;SDS011;2901;42.140;24.760;2023-04-24T08:25:59;7.43;;;6.13;;
5752;SDS011;2901;42.140;24.760;2023-04-24T08:28:24;17.02;;;6.57;;
5752;SDS011;2901;42.140;24.760;2023-04-24T08:30:50;11.75;;;6.80;;
5752;SDS011;2901;42.140;24.760;2023-04-24T08:33:19;7.47;;;7.07;;
5752;SDS011;2901;42.140;24.760;2023-04-24T08:35:48;6.90;;;6.47;;
5752;SDS011;2901;42.140;24.760;2023-04-24T08:38:13;6.43;;;5.95;;
5752;SDS011;2901;42.140;24.760;2023-04-24T08:40:39;6.88;;;6.20;;
5752;SDS011;2901;42.140;24.760;2023-04-24T08:43:05;7.40;;;6.70;;
5752;SDS011;2901;42.140;24.760;2023-04-24T08:45:30;10.20;;;6.97;;
5752;SDS011;2901;42.140;24.760;2023-04-24T08:47:57;6.40;;;5.88;;
5752;SDS011;2901;42.140;24.760;2023-04-24T08:50:23;9.38;;;6.80;;
5752;SDS011;2901;42.140;24.760;2023-04-24T08:52:49;6.68;;;6.10;;
5752;SDS011;2901;42.140;24.760;2023-04-24T08:55:16;17.60;;;6.93;;
5752;SDS011;2901;42.140;24.760;2023-04-24T08:57:44;6.43;;;6.00;;
5752;SDS011;2901;42.140;24.760;2023-04-24T09:00:10;7.60;;;6.60;;
5752;SDS011;2901;42.140;24.760;2023-04-24T09:02:36;7.45;;;5.93;;
5752;SDS011;2901;42.140;24.760;2023-04-24T09:05:02;7.25;;;5.93;;
5752;SDS011;2901;42.140;24.760;2023-04-24T09:07:28;8.27;;;5.85;;
5752;SDS011;2901;42.140;24.760;2023-04-24T09:09:57;7.03;;;6.35;;
5752;SDS011;2901;42.140;24.760;2023-04-24T09:12:24;11.52;;;7.47;;
5752;SDS011;2901;42.140;24.760;2023-04-24T09:14:49;6.68;;;6.28;;
5752;SDS011;2901;42.140;24.760;2023-04-24T09:17:16;7.00;;;6.00;;
5752;SDS011;2901;42.140;24.760;2023-04-24T09:19:41;12.32;;;6.38;;
5752;SDS011;2901;42.140;24.760;2023-04-24T09:22:07;5.93;;;5.53;;
5752;SDS011;2901;42.140;24.760;2023-04-24T09:24:33;8.60;;;6.35;;
5752;SDS011;2901;42.140;24.760;2023-04-24T09:26:59;9.35;;;5.97;;
5752;SDS011;2901;42.140;24.760;2023-04-24T09:29:28;9.85;;;6.30;;
5752;SDS011;2901;42.140;24.760;2023-04-24T09:31:54;9.13;;;6.00;;
5752;SDS011;2901;42.140;24.760;2023-04-24T09:34:23;8.30;;;6.50;;
5752;SDS011;2901;42.140;24.760;2023-04-24T09:36:50;9.05;;;6.28;;
5752;SDS011;2901;42.140;24.760;2023-04-24T09:39:16;7.25;;;6.75;;
5752;SDS011;2901;42.140;24.760;2023-04-24T09:41:52;10.48;;;6.80;;
5752;SDS011;2901;42.140;24.760;2023-04-24T09:44:19;9.32;;;7.85;;
5752;SDS011;2901;42.140;24.760;2023-04-24T09:46:48;9.10;;;8.40;;
5752;SDS011;2901;42.140;24.760;2023-04-24T09:49:16;9.48;;;8.07;;
5752;SDS011;2901;42.140;24.760;2023-04-24T09:51:48;8.55;;;8.00;;
5752;SDS011;2901;42.140;24.760;2023-04-24T09:54:14;7.75;;;7.13;;
5752;SDS011;2901;42.140;24.760;2023-04-24T09:56:45;8.45;;;7.68;;
5752;SDS011;2901;42.140;24.760;2023-04-24T09:59:13;8.68;;;6.85;;
5752;SDS011;2901;42.140;24.760;2023-04-24T10:01:39;7.93;;;7.22;;
5752;SDS011;2901;42.140;24.760;2023-04-24T10:04:14;8.25;;;7.63;;
5752;SDS011;2901;42.140;24.760;2023-04-24T10:06:42;8.60;;;7.70;;
5752;SDS011;2901;42.140;24.760;2023-04-24T10:09:08;9.23;;;8.30;;
5752;SDS011;2901;42.140;24.760;2023-04-24T10:11:35;13.05;;;7.68;;
5752;SDS011;2901;42.140;24.760;2023-04-24T10:14:02;8.07;;;7.25;;
5752;SDS011;2901;42.140;24.760;2023-04-24T10:16:28;6.82;;;6.43;;
5752;SDS011;2901;42.140;24.760;2023-04-24T10:18:56;9.27;;;7.40;;
5752;SDS011;2901;42.140;24.760;2023-04-24T10:21:25;8.48;;;6.18;;
5752;SDS011;2901;42.140;24.760;2023-04-24T10:23:51;6.47;;;6.05;;
5752;SDS011;2901;42.140;24.760;2023-04-24T10:26:17;5.93;;;5.50;;
5752;SDS011;2901;42.140;24.760;2023-04-24T10:28:47;5.50;;;5.10;;
5752;SDS011;2901;42.140;24.760;2023-04-24T10:31:13;7.28;;;5.97;;
5752;SDS011;2901;42.140;24.760;2023-04-24T10:33:42;5.35;;;5.03;;
5752;SDS011;2901;42.140;24.760;2023-04-24T10:36:11;8.10;;;5.53;;
5752;SDS011;2901;42.140;24.760;2023-04-24T10:38:39;14.75;;;6.25;;
5752;SDS011;2901;42.140;24.760;2023-04-24T10:41:08;6.18;;;5.03;;
5752;SDS011;2901;42.140;24.760;2023-04-24T10:43:48;8.52;;;5.30;;
5752;SDS011;2901;42.140;24.760;2023-04-24T10:46:29;5.05;;;4.68;;
5752;SDS011;2901;42.140;24.760;2023-04-24T10:48:55;5.65;;;5.35;;
5752;SDS011;2901;42.140;24.760;2023-04-24T10:51:22;5.82;;;5.07;;
5752;SDS011;2901;42.140;24.760;2023-04-24T10:53:49;4.65;;;4.45;;
5752;SDS011;2901;42.140;24.760;2023-04-24T10:56:17;5.43;;;4.57;;
5752;SDS011;2901;42.140;24.760;2023-04-24T10:58:43;6.18;;;5.82;;
5752;SDS011;2901;42.140;24.760;2023-04-24T11:03:59;5.65;;;5.20;;
5752;SDS011;2901;42.140;24.760;2023-04-24T11:06:30;5.97;;;5.32;;
5752;SDS011;2901;42.140;24.760;2023-04-24T11:09:07;6.32;;;5.05;;
5752;SDS011;2901;42.140;24.760;2023-04-24T11:11:37;6.38;;;5.00;;
5752;SDS011;2901;42.140;24.760;2023-04-24T11:14:06;6.88;;;4.50;;
5752;SDS011;2901;42.140;24.760;2023-04-24T11:19:17;4.63;;;4.28;;
5752;SDS011;2901;42.140;24.760;2023-04-24T11:29:47;8.77;;;4.75;;
5752;SDS011;2901;42.140;24.760;2023-04-24T11:34:44;7.05;;;4.45;;
5752;SDS011;2901;42.140;24.760;2023-04-24T11:37:11;8.52;;;4.43;;
5752;SDS011;2901;42.140;24.760;2023-04-24T11:39:37;4.53;;;4.13;;
5752;SDS011;2901;42.140;24.760;2023-04-24T11:42:03;7.80;;;4.43;;
5752;SDS011;2901;42.140;24.760;2023-04-24T11:44:28;5.05;;;4.00;;
5752;SDS011;2901;42.140;24.760;2023-04-24T11:46:55;6.97;;;3.85;;
5752;SDS011;2901;42.140;24.760;2023-04-24T11:49:21;5.38;;;3.88;;
5752;SDS011;2901;42.140;24.760;2023-04-24T11:51:46;4.60;;;4.25;;
5752;SDS011;2901;42.140;24.760;2023-04-24T11:54:12;11.40;;;4.55;;
5752;SDS011;2901;42.140;24.760;2023-04-24T11:56:37;5.05;;;4.18;;
5752;SDS011;2901;42.140;24.760;2023-04-24T11:59:04;6.07;;;4.30;;
5752;SDS011;2901;42.140;24.760;2023-04-24T12:01:29;7.45;;;4.72;;
5752;SDS011;2901;42.140;24.760;2023-04-24T12:03:59;4.65;;;3.75;;
5752;SDS011;2901;42.140;24.760;2023-04-24T12:06:25;6.80;;;4.18;;
5752;SDS011;2901;42.140;24.760;2023-04-24T12:08:52;6.90;;;4.65;;
5752;SDS011;2901;42.140;24.760;2023-04-24T12:11:19;13.15;;;4.53;;
5752;SDS011;2901;42.140;24.760;2023-04-24T12:13:45;7.72;;;4.30;;
5752;SDS011;2901;42.140;24.760;2023-04-24T12:16:11;5.15;;;3.95;;
5752;SDS011;2901;42.140;24.760;2023-04-24T12:18:41;4.10;;;3.58;;
5752;SDS011;2901;42.140;24.760;2023-04-24T12:21:20;7.63;;;3.85;;
5752;SDS011;2901;42.140;24.760;2023-04-24T12:23:47;8.07;;;4.47;;
5752;SDS011;2901;42.140;24.760;2023-04-24T12:26:17;3.80;;;3.50;;
5752;SDS011;2901;42.140;24.760;2023-04-24T12:28:45;6.25;;;4.13;;
5752;SDS011;2901;42.140;24.760;2023-04-24T12:31:13;3.80;;;3.45;;
5752;SDS011;2901;42.140;24.760;2023-04-24T12:33:38;5.82;;;4.25;;
5752;SDS011;2901;42.140;24.760;2023-04-24T12:36:04;5.32;;;4.13;;
5752;SDS011;2901;42.140;24.760;2023-04-24T12:38:30;4.43;;;4.03;;
5752;SDS011;2901;42.140;24.760;2023-04-24T12:41:03;6.28;;;3.67;;
5752;SDS011;2901;42.140;24.760;2023-04-24T12:43:29;3.85;;;3.65;;
5752;SDS011;2901;42.140;24.760;2023-04-24T12:45:55;7.97;;;3.78;;
5752;SDS011;2901;42.140;24.760;2023-04-24T12:48:20;4.15;;;3.95;;
5752;SDS011;2901;42.140;24.760;2023-04-24T12:50:47;4.05;;;3.70;;
5752;SDS011;2901;42.140;24.760;2023-04-24T12:53:13;4.00;;;3.63;;
5752;SDS011;2901;42.140;24.760;2023-04-24T12:55:39;3.78;;;3.47;;
5752;SDS011;2901;42.140;24.760;2023-04-24T12:58:05;4.20;;;3.08;;
5752;SDS011;2901;42.140;24.760;2023-04-24T13:00:30;4.85;;;4.18;;
5752;SDS011;2901;42.140;24.760;2023-04-24T13:02:56;4.05;;;3.17;;
5752;SDS011;2901;42.140;24.760;2023-04-24T13:05:21;8.68;;;4.00;;
5752;SDS011;2901;42.140;24.760;2023-04-24T13:07:46;4.40;;;3.78;;
5752;SDS011;2901;42.140;24.760;2023-04-24T13:10:12;3.88;;;3.67;;
5752;SDS011;2901;42.140;24.760;2023-04-24T13:12:38;4.50;;;4.28;;
5752;SDS011;2901;42.140;24.760;2023-04-24T13:15:04;5.05;;;3.85;;
5752;SDS011;2901;42.140;24.760;2023-04-24T13:17:30;4.32;;;4.05;;
5752;SDS011;2901;42.140;24.760;2023-04-24T13:19:55;4.47;;;4.13;;
5752;SDS011;2901;42.140;24.760;2023-04-24T13:22:20;7.35;;;3.70;;
5752;SDS011;2901;42.140;24.760;2023-04-24T13:24:46;4.43;;;3.92;;
5752;SDS011;2901;42.140;24.760;2023-04-24T13:27:13;3.92;;;3.70;;
5752;SDS011;2901;42.140;24.760;2023-04-24T13:29:39;5.03;;;4.10;;
5752;SDS011;2901;42.140;24.760;2023-04-24T13:32:04;3.63;;;3.40;;
5752;SDS011;2901;42.140;24.760;2023-04-24T13:34:30;3.63;;;3.33;;
5752;SDS011;2901;42.140;24.760;2023-04-24T13:36:56;3.72;;;3.42;;
5752;SDS011;2901;42.140;24.760;2023-04-24T13:39:23;3.65;;;3.38;;
5752;SDS011;2901;42.140;24.760;2023-04-24T13:41:49;4.00;;;3.70;;
5752;SDS011;2901;42.140;24.760;2023-04-24T13:44:15;3.75;;;3.55;;
5752;SDS011;2901;42.140;24.760;2023-04-24T13:46:42;4.35;;;3.22;;
5752;SDS011;2901;42.140;24.760;2023-04-24T13:49:09;4.25;;;3.47;;
5752;SDS011;2901;42.140;24.760;2023-04-24T13:51:35;6.40;;;3.55;;
5752;SDS011;2901;42.140;24.760;2023-04-24T13:54:01;3.78;;;3.47;;
5752;SDS011;2901;42.140;24.760;2023-04-24T13:56:26;4.50;;;3.30;;
5752;SDS011;2901;42.140;24.760;2023-04-24T13:58:51;5.40;;;3.58;;
5752;SDS011;2901;42.140;24.760;2023-04-24T14:01:19;3.90;;;3.65;;
5752;SDS011;2901;42.140;24.760;2023-04-24T14:03:44;4.25;;;3.10;;
5752;SDS011;2901;42.140;24.760;2023-04-24T14:06:10;3.70;;;3.45;;
5752;SDS011;2901;42.140;24.760;2023-04-24T14:08:35;3.10;;;2.97;;
5752;SDS011;2901;42.140;24.760;2023-04-24T14:11:00;3.50;;;3.15;;
5752;SDS011;2901;42.140;24.760;2023-04-24T14:13:26;2.92;;;2.83;;
5752;SDS011;2901;42.140;24.760;2023-04-24T14:15:52;3.60;;;3.35;;
5752;SDS011;2901;42.140;24.760;2023-04-24T14:18:18;4.38;;;3.50;;
5752;SDS011;2901;42.140;24.760;2023-04-24T14:20:44;3.95;;;3.30;;
5752;SDS011;2901;42.140;24.760;2023-04-24T14:23:09;5.72;;;3.47;;
5752;SDS011;2901;42.140;24.760;2023-04-24T14:25:35;4.32;;;3.20;;
5752;SDS011;2901;42.140;24.760;2023-04-24T14:28:00;3.63;;;3.33;;
5752;SDS011;2901;42.140;24.760;2023-04-24T14:30:25;3.33;;;3.13;;
5752;SDS011;2901;42.140;24.760;2023-04-24T14:32:51;3.13;;;2.80;;
5752;SDS011;2901;42.140;24.760;2023-04-24T14:35:16;3.15;;;2.90;;
5752;SDS011;2901;42.140;24.760;2023-04-24T14:37:42;3.35;;;3.00;;
5752;SDS011;2901;42.140;24.760;2023-04-24T14:40:07;3.25;;;3.05;;
5752;SDS011;2901;42.140;24.760;2023-04-24T14:42:34;3.13;;;3.00;;
5752;SDS011;2901;42.140;24.760;2023-04-24T14:45:00;2.90;;;2.70;;
5752;SDS011;2901;42.140;24.760;2023-04-24T14:47:25;5.85;;;2.90;;
5752;SDS011;2901;42.140;24.760;2023-04-24T14:49:51;4.10;;;3.13;;
5752;SDS011;2901;42.140;24.760;2023-04-24T14:52:16;3.75;;;2.55;;
5752;SDS011;2901;42.140;24.760;2023-04-24T14:54:42;3.03;;;2.88;;
5752;SDS011;2901;42.140;24.760;2023-04-24T14:57:08;4.80;;;3.13;;
5752;SDS011;2901;42.140;24.760;2023-04-24T14:59:33;3.47;;;3.30;;
5752;SDS011;2901;42.140;24.760;2023-04-24T15:01:59;2.78;;;2.55;;
5752;SDS011;2901;42.140;24.760;2023-04-24T15:04:25;5.55;;;3.50;;
5752;SDS011;2901;42.140;24.760;2023-04-24T15:06:51;4.32;;;3.22;;